Time;durP1;ratioP1;P1;durP2;ratioP2;P2;SDS_P1;SDS_P2;PMS_P1;PMS_P2;Temp;Humidity;BMP_temperature;BMP_pressure;BME280_temperature;BME280_humidity;BME280_pressure;Samples;Min_cycle;Max_cycle;Signal;HPM_P1;HPM_P2
2021/05/31 00:01:16;;;;;;;5.50;4.20;;;15.60;56.50;;;;;;5033663;28;20112;-53
2021/05/31 00:03:41;;;;;;;8.48;4.75;;;15.60;56.50;;;;;;5050749;28;20430;-49
2021/05/31 00:06:07;;;;;;;7.68;5.00;;;15.60;56.40;;;;;;5051370;28;20082;-52
2021/05/31 00:08:33;;;;;;;4.95;3.92;;;15.50;56.50;;;;;;5033134;28;20021;-48
2021/05/31 00:11:00;;;;;;;6.30;4.35;;;15.50;56.60;;;;;;5051281;28;20025;-49
2021/05/31 00:13:27;;;;;;;5.00;4.00;;;15.50;56.80;;;;;;5050464;28;20499;-49
2021/05/31 00:15:53;;;;;;;5.55;4.80;;;15.50;57.00;;;;;;5051418;28;20024;-48
2021/05/31 00:18:19;;;;;;;8.32;4.53;;;15.50;57.30;;;;;;5051208;28;20083;-48
2021/05/31 00:20:46;;;;;;;7.47;4.55;;;15.40;57.40;;;;;;5050501;28;20570;-46
2021/05/31 00:23:12;;;;;;;7.45;4.38;;;15.30;57.60;;;;;;5019010;28;20115;-52
2021/05/31 00:25:37;;;;;;;7.55;4.72;;;15.40;57.30;;;;;;5054387;28;20133;-48
2021/05/31 00:28:03;;;;;;;7.15;4.20;;;15.50;57.30;;;;;;5054902;28;20035;-48
2021/05/31 00:30:30;;;;;;;6.57;4.60;;;15.60;57.00;;;;;;5053811;28;20438;-48
2021/05/31 00:33:14;;;;;;;6.53;4.55;;;15.60;57.00;;;;;;5035037;28;20071;-53
2021/05/31 00:35:40;;;;;;;4.70;4.20;;;15.60;57.00;;;;;;5054078;28;20030;-49
2021/05/31 00:38:06;;;;;;;6.72;4.85;;;15.60;56.90;;;;;;5054228;28;20467;-48
2021/05/31 00:40:31;;;;;;;8.88;4.47;;;15.60;56.90;;;;;;5053569;28;20484;-50
2021/05/31 00:42:57;;;;;;;6.72;4.90;;;15.60;56.70;;;;;;5054397;28;20094;-47
2021/05/31 00:45:24;;;;;;;7.25;4.88;;;15.70;56.50;;;;;;5036889;28;20036;-50
2021/05/31 00:47:50;;;;;;;8.77;4.65;;;15.70;56.40;;;;;;5053752;28;20025;-51
2021/05/31 00:50:16;;;;;;;5.50;4.53;;;15.70;56.30;;;;;;5036289;28;20093;-52
2021/05/31 00:52:42;;;;;;;5.65;4.85;;;15.60;56.60;;;;;;5054072;28;20482;-49
2021/05/31 00:55:09;;;;;;;5.32;4.43;;;15.50;56.60;;;;;;5053934;28;20533;-50
2021/05/31 00:57:43;;;;;;;6.13;4.82;;;15.50;56.50;;;;;;5053638;28;20032;-47
2021/05/31 01:00:10;;;;;;;7.35;4.20;;;15.60;56.60;;;;;;5053842;28;20025;-50
2021/05/31 01:02:36;;;;;;;5.00;4.13;;;15.60;56.50;;;;;;5053502;28;20025;-46
2021/05/31 01:05:03;;;;;;;5.72;4.53;;;15.60;56.50;;;;;;5053904;28;20610;-50
2021/05/31 01:07:38;;;;;;;5.32;4.50;;;15.50;56.50;;;;;;5053478;28;20040;-49
2021/05/31 01:10:10;;;;;;;6.90;4.63;;;15.40;56.60;;;;;;5053165;28;20040;-50
2021/05/31 01:12:55;;;;;;;6.30;4.55;;;15.30;57.00;;;;;;5053130;28;20064;-52
2021/05/31 01:15:33;;;;;;;5.20;4.55;;;15.30;57.00;;;;;;5053571;28;20028;-52
2021/05/31 01:18:15;;;;;;;8.25;4.72;;;15.30;57.30;;;;;;5035698;28;20087;-47
2021/05/31 01:21:04;;;;;;;7.38;4.75;;;15.20;57.50;;;;;;5053418;28;20434;-50
2021/05/31 01:23:35;;;;;;;7.20;4.63;;;15.10;57.70;;;;;;5052677;28;20044;-51
2021/05/31 01:26:15;;;;;;;6.55;4.88;;;15.00;57.80;;;;;;5035492;28;20024;-49
2021/05/31 01:29:05;;;;;;;6.53;4.60;;;15.00;58.00;;;;;;5052662;28;20021;-49
2021/05/31 01:31:42;;;;;;;7.10;4.75;;;14.90;58.50;;;;;;5034895;28;20037;-46
2021/05/31 01:34:11;;;;;;;5.05;4.55;;;14.80;58.60;;;;;;5052371;28;20134;-50
2021/05/31 01:36:45;;;;;;;6.25;5.10;;;14.70;59.10;;;;;;5034609;28;20024;-47
2021/05/31 01:39:12;;;;;;;;;;;14.60;59.20;;;;;;5053968;28;20032;-53
2021/05/31 01:41:38;;;;;;;6.07;4.43;;;14.60;59.40;;;;;;5034525;28;20343;-49
2021/05/31 01:44:04;;;;;;;5.72;4.68;;;14.60;59.20;;;;;;5052871;28;20037;-49
2021/05/31 01:46:30;;;;;;;8.65;4.68;;;14.70;59.10;;;;;;5052359;28;20025;-47
2021/05/31 01:48:58;;;;;;;5.43;4.82;;;14.70;59.10;;;;;;5052811;28;20109;-54
2021/05/31 01:51:24;;;;;;;6.40;4.60;;;14.70;59.00;;;;;;5052577;28;20049;-52
2021/05/31 01:53:52;;;;;;;6.40;4.75;;;14.70;58.90;;;;;;5051885;28;20036;-50
2021/05/31 01:56:19;;;;;;;6.28;4.85;;;14.80;58.80;;;;;;5034713;28;20033;-48
2021/05/31 01:58:44;;;;;;;5.60;4.88;;;14.80;58.80;;;;;;5034186;28;20064;-52
2021/05/31 02:01:11;;;;;;;7.20;4.93;;;14.70;59.10;;;;;;5052435;28;20049;-51
2021/05/31 02:03:38;;;;;;;8.30;5.22;;;14.70;59.20;;;;;;5050987;28;20032;-51
2021/05/31 02:06:04;;;;;;;6.07;4.53;;;14.70;59.20;;;;;;5052132;28;20105;-52
2021/05/31 02:08:30;;;;;;;8.73;4.35;;;14.70;59.00;;;;;;5051103;28;20036;-50
2021/05/31 02:11:06;;;;;;;5.93;4.68;;;14.70;58.90;;;;;;5051578;28;20017;-57
2021/05/31 02:13:35;;;;;;;6.88;4.90;;;14.70;59.10;;;;;;5051726;28;20044;-49
2021/05/31 02:16:12;;;;;;;7.15;4.53;;;14.80;58.90;;;;;;5051682;28;20021;-53
2021/05/31 02:18:44;;;;;;;6.60;4.90;;;14.70;58.90;;;;;;5033631;28;20340;-53
2021/05/31 02:21:16;;;;;;;5.32;4.55;;;14.70;59.00;;;;;;5051577;28;20219;-46
2021/05/31 02:23:42;;;;;;;6.05;4.38;;;14.70;59.10;;;;;;5050159;28;20443;-52
2021/05/31 02:26:16;;;;;;;5.28;4.65;;;14.70;58.90;;;;;;5051771;28;20021;-50
2021/05/31 02:28:45;;;;;;;6.25;4.32;;;14.80;58.80;;;;;;5050959;28;20040;-48
2021/05/31 02:31:11;;;;;;;5.53;4.65;;;14.80;58.80;;;;;;5050986;28;20032;-53
2021/05/31 02:33:37;;;;;;;7.20;4.85;;;14.80;58.80;;;;;;5051174;28;20028;-53
2021/05/31 02:36:04;;;;;;;6.10;4.65;;;14.80;58.70;;;;;;5051991;28;20036;-50
2021/05/31 02:38:30;;;;;;;7.47;4.80;;;14.90;58.50;;;;;;5033361;28;20025;-48
2021/05/31 02:40:57;;;;;;;6.10;4.68;;;15.00;58.40;;;;;;5033543;28;20025;-49
2021/05/31 02:43:23;;;;;;;6.00;4.28;;;15.00;58.20;;;;;;5051378;28;20032;-47
2021/05/31 02:45:49;;;;;;;5.15;4.50;;;15.00;58.10;;;;;;5049622;28;20459;-52
2021/05/31 02:48:15;;;;;;;6.45;4.32;;;15.00;58.00;;;;;;5033221;28;20025;-47
2021/05/31 02:50:41;;;;;;;6.75;4.90;;;15.00;58.00;;;;;;5050733;28;20021;-49
2021/05/31 02:53:07;;;;;;;6.40;5.05;;;14.90;58.20;;;;;;5032681;28;20060;-49
2021/05/31 02:55:36;;;;;;;9.23;4.63;;;14.80;58.50;;;;;;5050002;28;20036;-51
2021/05/31 02:58:01;;;;;;;7.90;5.00;;;14.70;58.70;;;;;;5033122;28;20029;-47
2021/05/31 03:00:28;;;;;;;5.15;4.65;;;14.70;58.80;;;;;;5032432;28;20040;-46
2021/05/31 03:02:55;;;;;;;6.72;4.15;;;14.70;58.90;;;;;;5033091;28;20060;-50
2021/05/31 03:05:25;;;;;;;6.63;4.80;;;14.60;59.10;;;;;;5033538;28;20116;-50
2021/05/31 03:07:51;;;;;;;5.75;4.90;;;14.60;59.20;;;;;;5050795;28;20025;-51
2021/05/31 03:10:17;;;;;;;5.47;4.45;;;14.50;59.30;;;;;;5051425;28;20096;-55
2021/05/31 03:12:44;;;;;;;8.23;4.57;;;14.60;59.30;;;;;;5050703;28;20045;-52
2021/05/31 03:15:12;;;;;;;7.43;4.82;;;14.60;59.10;;;;;;5033750;28;20029;-50
2021/05/31 03:17:38;;;;;;;5.32;4.57;;;14.70;58.90;;;;;;5033368;28;20429;-55
2021/05/31 03:20:08;;;;;;;6.95;5.00;;;14.80;58.60;;;;;;5052076;28;20043;-57
2021/05/31 03:22:34;;;;;;;8.10;4.78;;;14.70;58.90;;;;;;5033197;28;20065;-53
2021/05/31 03:25:01;;;;;;;5.40;4.60;;;14.50;59.50;;;;;;5051579;28;20029;-52
2021/05/31 03:27:27;;;;;;;6.68;4.47;;;14.50;59.50;;;;;;5051622;28;20059;-51
2021/05/31 03:29:52;;;;;;;4.80;4.13;;;14.70;59.20;;;;;;5032559;28;20064;-48
2021/05/31 03:32:18;;;;;;;6.43;4.40;;;14.70;59.10;;;;;;5051222;28;20032;-49
2021/05/31 03:34:44;;;;;;;6.20;4.50;;;14.60;59.00;;;;;;5051404;28;20447;-49
2021/05/31 03:37:09;;;;;;;7.03;4.57;;;14.70;59.10;;;;;;5033453;28;20021;-52
2021/05/31 03:39:35;;;;;;;6.63;4.75;;;14.60;59.10;;;;;;5051057;28;20486;-52
2021/05/31 03:42:01;;;;;;;7.95;4.60;;;14.60;59.10;;;;;;5051462;28;20032;-48
2021/05/31 03:44:27;;;;;;;6.80;4.50;;;14.70;58.90;;;;;;5033404;28;20402;-53
2021/05/31 03:46:52;;;;;;;7.50;4.90;;;14.90;58.50;;;;;;5050986;28;20074;-50
2021/05/31 03:49:18;;;;;;;8.43;5.03;;;15.10;58.10;;;;;;5051568;28;20399;-50
2021/05/31 03:51:45;;;;;;;5.07;4.40;;;15.10;57.80;;;;;;5051010;28;20060;-53
2021/05/31 03:54:12;;;;;;;7.18;4.65;;;15.20;57.50;;;;;;5051302;28;20021;-55
2021/05/31 03:56:38;;;;;;;5.65;4.75;;;15.20;57.30;;;;;;5051100;28;20021;-51
2021/05/31 03:59:04;;;;;;;6.97;4.38;;;15.40;57.30;;;;;;5054666;28;20529;-52
2021/05/31 04:01:31;;;;;;;7.80;4.90;;;15.50;56.70;;;;;;5037247;28;20460;-50
2021/05/31 04:03:58;;;;;;;5.40;4.40;;;15.60;56.50;;;;;;5054373;28;20029;-50
2021/05/31 04:11:52;;;;;;;7.50;5.05;;;16.00;55.20;;;;;;5054608;28;20251;-53
2021/05/31 04:14:19;;;;;;;5.72;4.38;;;16.00;55.00;;;;;;5055012;28;20028;-47
2021/05/31 04:16:47;;;;;;;6.13;4.53;;;15.90;55.00;;;;;;5053843;28;20021;-47
2021/05/31 04:19:15;;;;;;;5.68;4.32;;;15.90;55.30;;;;;;5054793;28;20460;-45
2021/05/31 04:21:43;;;;;;;5.85;4.28;;;15.90;55.20;;;;;;5054369;28;20021;-48
2021/05/31 04:24:10;;;;;;;6.10;4.40;;;15.90;55.10;;;;;;5054035;28;20476;-51
2021/05/31 04:26:36;;;;;;;5.97;4.55;;;16.00;55.20;;;;;;5036193;28;20083;-54
2021/05/31 04:29:04;;;;;;;8.27;4.82;;;16.20;54.90;;;;;;5054430;28;20017;-54
2021/05/31 04:31:30;;;;;;;6.43;4.55;;;16.40;54.30;;;;;;5054737;28;20017;-54
2021/05/31 04:33:56;;;;;;;6.13;4.13;;;16.60;53.80;;;;;;5054157;28;20029;-49
2021/05/31 04:36:21;;;;;;;4.57;4.00;;;16.80;53.20;;;;;;5054400;28;20103;-50
2021/05/31 04:38:47;;;;;;;4.75;3.90;;;17.00;52.90;;;;;;5053659;28;20096;-53
2021/05/31 04:41:13;;;;;;;5.68;4.28;;;17.10;52.30;;;;;;5054251;28;20043;-52
2021/05/31 04:43:39;;;;;;;8.85;4.38;;;17.20;51.80;;;;;;5035643;28;20486;-49
2021/05/31 04:46:05;;;;;;;6.75;4.00;;;17.20;51.70;;;;;;5053963;28;20036;-47
2021/05/31 04:48:31;;;;;;;8.10;4.43;;;17.20;51.40;;;;;;5054150;28;20025;-50
2021/05/31 04:50:57;;;;;;;5.63;4.10;;;17.30;51.40;;;;;;5035651;28;20033;-53
2021/05/31 04:53:27;;;;;;;7.63;4.65;;;17.30;51.20;;;;;;5036237;28;20033;-52
2021/05/31 04:55:54;;;;;;;6.43;4.40;;;17.30;51.30;;;;;;5053484;28;20017;-48
2021/05/31 04:58:20;;;;;;;5.55;4.18;;;17.30;51.20;;;;;;5054197;28;20082;-54
2021/05/31 05:00:46;;;;;;;8.68;4.15;;;17.40;51.20;;;;;;5053248;28;20032;-50
2021/05/31 05:03:12;;;;;;;7.82;4.03;;;17.30;51.10;;;;;;5052720;28;20108;-47
2021/05/31 05:05:38;;;;;;;6.18;4.07;;;17.30;51.20;;;;;;5054977;28;20032;-50
2021/05/31 05:08:04;;;;;;;14.00;4.32;;;17.30;51.00;;;;;;5036994;28;20029;-52
2021/05/31 05:10:29;;;;;;;5.90;4.38;;;17.40;50.90;;;;;;5035058;28;20029;-52
2021/05/31 05:12:56;;;;;;;8.65;4.30;;;17.50;50.80;;;;;;5052892;28;20483;-54
2021/05/31 05:15:23;;;;;;;6.50;3.97;;;17.70;50.30;;;;;;5053798;28;20116;-54
2021/05/31 05:17:50;;;;;;;6.60;4.50;;;17.70;50.20;;;;;;5053048;28;20037;-48
2021/05/31 05:20:18;;;;;;;8.35;4.40;;;17.70;50.10;;;;;;5053760;28;20025;-53
2021/05/31 05:22:44;;;;;;;5.13;3.90;;;17.80;50.10;;;;;;5035099;28;20120;-51
2021/05/31 05:25:12;;;;;;;7.22;4.15;;;18.00;49.80;;;;;;5053854;28;20033;-53
2021/05/31 05:27:39;;;;;;;7.65;4.10;;;18.20;49.20;;;;;;5053530;28;20516;-47
2021/05/31 05:30:06;;;;;;;8.40;4.50;;;18.40;48.70;;;;;;5053759;28;20162;-53
2021/05/31 05:32:33;;;;;;;5.85;4.32;;;18.50;48.70;;;;;;5053195;28;20029;-49
2021/05/31 05:35:09;;;;;;;5.57;4.07;;;18.60;48.30;;;;;;5052701;28;20033;-53
2021/05/31 05:37:41;;;;;;;5.43;4.00;;;18.80;47.60;;;;;;5035337;28;20066;-48
2021/05/31 05:43:14;;;;;;;7.18;3.85;;;18.80;47.80;;;;;;5051699;28;20502;-52
2021/05/31 05:45:59;;;;;;;10.07;4.32;;;18.90;47.70;;;;;;5034517;28;20123;-50
2021/05/31 05:48:28;;;;;;;5.85;4.25;;;19.10;47.30;;;;;;5035157;28;20543;-50
2021/05/31 05:51:05;;;;;;;7.80;5.10;;;19.40;46.60;;;;;;5034674;28;20494;-49
2021/05/31 05:53:37;;;;;;;7.35;4.00;;;19.60;46.30;;;;;;5053238;28;20032;-52
2021/05/31 05:56:05;;;;;;;12.80;4.10;;;19.90;45.50;;;;;;5052452;28;20021;-53
2021/05/31 05:58:31;;;;;;;4.78;3.70;;;20.10;45.00;;;;;;5052758;28;20463;-49
2021/05/31 06:00:58;;;;;;;8.98;4.20;;;20.20;44.80;;;;;;5052276;28;20028;-54
2021/05/31 06:03:24;;;;;;;7.28;4.00;;;20.40;44.40;;;;;;5034748;28;20083;-51
2021/05/31 06:05:50;;;;;;;4.13;3.55;;;20.60;43.90;;;;;;5052125;28;20044;-51
2021/05/31 06:08:17;;;;;;;5.60;3.75;;;20.70;43.60;;;;;;5034921;28;20032;-54
2021/05/31 06:10:43;;;;;;;5.13;3.70;;;21.00;43.10;;;;;;5034384;28;20029;-48
2021/05/31 06:13:10;;;;;;;6.32;3.78;;;21.20;42.60;;;;;;5052408;28;20055;-50
2021/05/31 06:15:36;;;;;;;9.48;3.63;;;21.40;42.10;;;;;;5052220;28;20463;-51
2021/05/31 06:18:03;;;;;;;7.15;3.70;;;21.50;41.90;;;;;;5051380;28;20291;-53
2021/05/31 06:20:29;;;;;;;6.38;3.72;;;21.70;41.50;;;;;;5052091;28;20032;-52
2021/05/31 06:22:55;;;;;;;7.13;4.38;;;21.80;41.30;;;;;;5051650;28;20045;-52
2021/05/31 06:25:21;;;;;;;12.43;4.43;;;22.00;41.20;;;;;;5034661;28;20111;-53
2021/05/31 06:27:47;;;;;;;11.00;3.97;;;22.30;40.80;;;;;;5033441;28;20468;-54
2021/05/31 06:30:14;;;;;;;6.50;4.38;;;22.60;40.20;;;;;;5034486;28;20029;-51
2021/05/31 06:32:40;;;;;;;9.60;3.65;;;22.80;39.50;;;;;;5052063;28;20495;-52
2021/05/31 06:35:06;;;;;;;8.45;3.40;;;22.90;38.70;;;;;;5051404;28;20028;-49
2021/05/31 06:37:38;;;;;;;4.40;3.45;;;23.10;38.90;;;;;;5052158;28;20100;-52
2021/05/31 06:40:06;;;;;;;4.85;3.72;;;23.30;38.30;;;;;;5033736;28;20175;-54
2021/05/31 06:42:32;;;;;;;4.82;3.35;;;23.30;37.90;;;;;;5051984;28;20489;-55
2021/05/31 06:44:58;;;;;;;4.88;3.70;;;23.10;38.10;;;;;;5051574;28;20033;-50
2021/05/31 06:47:24;;;;;;;8.00;4.00;;;22.80;38.60;;;;;;5051802;28;20032;-51
2021/05/31 06:49:51;;;;;;;7.93;5.40;;;22.90;39.30;;;;;;5051055;28;20170;-54
2021/05/31 06:52:16;;;;;;;6.85;4.22;;;25.70;37.20;;;;;;5051720;28;20077;-53
2021/05/31 06:54:42;;;;;;;8.20;5.18;;;30.00;32.50;;;;;;5051024;28;20112;-52
2021/05/31 06:57:08;;;;;;;6.28;4.20;;;33.30;28.80;;;;;;5032783;28;20276;-49
2021/05/31 06:59:34;;;;;;;10.80;4.30;;;35.90;26.90;;;;;;5033386;28;20202;-55
2021/05/31 07:01:59;;;;;;;12.68;4.10;;;37.90;25.00;;;;;;5050553;28;20032;-56
2021/05/31 07:04:25;;;;;;;13.30;4.05;;;39.30;23.90;;;;;;5033020;28;20119;-56
2021/05/31 07:06:51;;;;;;;14.82;4.13;;;40.50;22.70;;;;;;5032226;28;20028;-49
2021/05/31 07:09:16;;;;;;;12.02;4.30;;;41.70;22.50;;;;;;5050730;28;20387;-51
2021/05/31 07:11:46;;;;;;;9.50;4.40;;;42.60;21.80;;;;;;5050255;28;20601;-53
2021/05/31 07:14:17;;;;;;;7.90;3.88;;;43.50;21.30;;;;;;5049839;28;20136;-54
2021/05/31 07:16:51;;;;;;;10.18;3.67;;;44.00;20.60;;;;;;5051127;28;20025;-57
2021/05/31 07:19:19;;;;;;;6.93;3.60;;;44.10;21.00;;;;;;5032605;28;20417;-55
2021/05/31 07:21:45;;;;;;;10.90;4.07;;;44.70;19.90;;;;;;5033068;28;20029;-59
2021/05/31 07:24:11;;;;;;;8.35;3.70;;;44.90;19.80;;;;;;5050303;28;20033;-53
2021/05/31 07:26:37;;;;;;;69.85;7.47;;;45.10;19.80;;;;;;5050960;28;20375;-54
2021/05/31 07:29:04;;;;;;;74.40;7.60;;;45.60;19.80;;;;;;5032619;28;20112;-57
2021/05/31 07:31:48;;;;;;;79.38;8.68;;;45.80;19.50;;;;;;5050756;28;20029;-56
2021/05/31 07:34:14;;;;;;;66.78;7.88;;;46.00;19.10;;;;;;5035388;28;20029;-52
2021/05/31 07:36:40;;;;;;;30.52;6.18;;;46.40;19.40;;;;;;5054074;28;20104;-55
2021/05/31 07:39:06;;;;;;;189.65;16.65;;;46.60;19.30;;;;;;5053136;28;20056;-53
2021/05/31 07:41:33;;;;;;;126.85;12.25;;;47.00;19.40;;;;;;5036123;28;20021;-55
2021/05/31 07:44:00;;;;;;;40.80;6.55;;;47.10;19.10;;;;;;5054465;28;20106;-55
2021/05/31 07:46:38;;;;;;;161.15;14.63;;;46.70;19.00;;;;;;5036296;28;20021;-56
2021/05/31 07:49:04;;;;;;;212.93;18.88;;;46.60;18.80;;;;;;5036175;28;20087;-57
2021/05/31 07:51:32;;;;;;;13.80;4.93;;;46.90;18.90;;;;;;5036825;28;20021;-58
2021/05/31 07:53:58;;;;;;;17.88;5.07;;;46.70;18.90;;;;;;5053822;28;20029;-56
2021/05/31 07:56:26;;;;;;;10.10;4.53;;;46.90;19.10;;;;;;5054647;28;20460;-56
2021/05/31 07:58:54;;;;;;;37.30;6.65;;;47.70;19.00;;;;;;5035894;28;20115;-57
2021/05/31 08:01:20;;;;;;;16.75;5.05;;;48.30;18.80;;;;;;5036870;28;20118;-58
2021/05/31 08:03:48;;;;;;;13.32;5.07;;;48.50;18.60;;;;;;5036743;28;20498;-54
2021/05/31 08:06:17;;;;;;;10.32;5.60;;;48.70;18.50;;;;;;5054246;28;20029;-54
2021/05/31 08:08:44;;;;;;;8.82;4.18;;;49.10;18.50;;;;;;5036738;28;20483;-56
2021/05/31 08:11:11;;;;;;;9.90;4.35;;;48.70;18.10;;;;;;5053631;28;20028;-56
2021/05/31 08:13:39;;;;;;;12.10;5.00;;;48.70;18.30;;;;;;5054481;28;20134;-57
2021/05/31 08:16:07;;;;;;;15.43;4.25;;;48.90;17.80;;;;;;5053478;28;20115;-53
2021/05/31 08:18:34;;;;;;;14.73;5.10;;;45.50;18.30;;;;;;5054310;28;20021;-54
2021/05/31 08:21:00;;;;;;;5.70;4.40;;;44.50;19.30;;;;;;5034470;28;20406;-54
2021/05/31 08:23:27;;;;;;;4.38;3.97;;;45.50;19.10;;;;;;5053974;28;20036;-54
2021/05/31 08:25:53;;;;;;;6.50;4.45;;;46.80;18.80;;;;;;5053462;28;20581;-58
2021/05/31 08:28:19;;;;;;;8.77;4.25;;;47.40;18.60;;;;;;5036019;28;20021;-57
2021/05/31 08:30:46;;;;;;;8.35;4.22;;;48.00;18.40;;;;;;5053936;28;20029;-55
2021/05/31 08:33:12;;;;;;;6.53;3.88;;;48.70;18.40;;;;;;5035628;28;20037;-58
2021/05/31 08:35:39;;;;;;;5.38;3.13;;;49.40;17.80;;;;;;5036128;28;20053;-53
2021/05/31 08:38:05;;;;;;;8.30;4.10;;;49.50;17.40;;;;;;5053710;28;20064;-55
2021/05/31 08:40:31;;;;;;;17.30;5.18;;;47.90;17.80;;;;;;5054312;28;20028;-56
2021/05/31 08:42:57;;;;;;;37.38;8.88;;;48.40;17.80;;;;;;5053321;28;20036;-56
2021/05/31 08:45:42;;;;;;;31.02;7.53;;;48.80;17.70;;;;;;5053886;28;20348;-56
2021/05/31 08:48:10;;;;;;;122.15;13.35;;;49.10;17.80;;;;;;5053060;28;20025;-55
2021/05/31 08:50:37;;;;;;;91.35;11.57;;;49.70;17.70;;;;;;5053913;28;20032;-52
2021/05/31 08:53:03;;;;;;;111.18;13.30;;;49.70;17.60;;;;;;5035462;28;20387;-56
2021/05/31 08:55:30;;;;;;;116.30;10.93;;;49.10;17.60;;;;;;5053635;28;20024;-48
2021/05/31 08:57:56;;;;;;;98.07;12.02;;;49.00;17.60;;;;;;5053209;28;20040;-56
2021/05/31 09:00:31;;;;;;;112.50;13.18;;;48.70;17.90;;;;;;5035242;28;20025;-54
2021/05/31 09:03:06;;;;;;;96.03;12.52;;;47.80;17.90;;;;;;5035529;28;20037;-58
2021/05/31 09:05:36;;;;;;;83.47;9.32;;;44.70;18.20;;;;;;5035767;28;20025;-54
2021/05/31 09:08:15;;;;;;;51.70;7.10;;;42.70;19.10;;;;;;5053382;28;20079;-56
2021/05/31 09:10:46;;;;;;;13.52;3.33;;;41.90;19.90;;;;;;5035290;28;20021;-53
2021/05/31 09:13:25;;;;;;;57.50;7.50;;;42.50;19.70;;;;;;5052683;28;20072;-52
2021/05/31 09:16:15;;;;;;;15.38;4.72;;;41.80;19.80;;;;;;5034817;28;20025;-53
2021/05/31 09:18:56;;;;;;;18.38;4.60;;;39.80;20.20;;;;;;5052380;28;20079;-53
2021/05/31 09:21:33;;;;;;;14.23;5.72;;;37.50;21.20;;;;;;5052405;28;20029;-51
2021/05/31 09:24:04;;;;;;;23.30;4.15;;;35.60;22.50;;;;;;5034503;28;20037;-52
2021/05/31 09:26:45;;;;;;;5.65;2.90;;;34.40;23.30;;;;;;5035108;28;20020;-54
2021/05/31 09:29:11;;;;;;;63.45;6.20;;;33.40;24.00;;;;;;5034586;28;20021;-51
2021/05/31 09:31:37;;;;;;;25.33;3.95;;;32.10;25.00;;;;;;5052183;28;20031;-54
2021/05/31 09:34:07;;;;;;;14.05;3.72;;;31.60;25.50;;;;;;5050921;28;20032;-53
2021/05/31 09:36:46;;;;;;;13.55;2.58;;;31.00;25.90;;;;;;5052972;28;20029;-56
2021/05/31 09:39:12;;;;;;;17.80;3.72;;;30.40;26.10;;;;;;5034105;28;20066;-53
2021/05/31 09:41:38;;;;;;;11.07;3.20;;;29.90;26.40;;;;;;5052199;28;20031;-55
2021/05/31 09:44:05;;;;;;;14.80;3.70;;;29.60;26.60;;;;;;5051892;28;20044;-55
2021/05/31 09:46:45;;;;;;;8.80;3.22;;;29.30;26.90;;;;;;5034771;28;20029;-54
2021/05/31 09:49:22;;;;;;;7.78;3.05;;;28.90;27.20;;;;;;5052568;28;20482;-55
2021/05/31 09:52:04;;;;;;;7.15;3.03;;;28.40;27.50;;;;;;5052304;28;20021;-55
2021/05/31 09:54:38;;;;;;;14.73;3.03;;;28.40;27.80;;;;;;5052161;28;20025;-54
2021/05/31 09:57:24;;;;;;;10.38;3.13;;;28.00;27.50;;;;;;5050840;28;20044;-55
2021/05/31 10:00:04;;;;;;;9.80;3.42;;;28.00;27.50;;;;;;5051426;28;20025;-55
2021/05/31 10:02:47;;;;;;;9.00;3.55;;;28.00;27.50;;;;;;5034059;28;20025;-52
2021/05/31 10:10:41;;;;;;;8.23;2.70;;;27.80;27.60;;;;;;5052011;28;20051;-53
2021/05/31 10:13:08;;;;;;;6.78;3.42;;;27.60;27.80;;;;;;5051179;28;20052;-53
2021/05/31 10:15:43;;;;;;;16.63;3.20;;;27.60;28.10;;;;;;5051753;28;20099;-54
2021/05/31 10:18:13;;;;;;;17.95;4.80;;;27.60;28.00;;;;;;5017419;28;20033;-55
2021/05/31 10:20:39;;;;;;;7.70;2.75;;;27.50;28.10;;;;;;5052072;28;20472;-51
2021/05/31 10:23:12;;;;;;;13.38;4.03;;;27.40;28.00;;;;;;5033531;28;20033;-54
2021/05/31 10:25:50;;;;;;;4.10;2.47;;;27.40;28.20;;;;;;5051651;28;20035;-56
2021/05/31 10:28:21;;;;;;;6.70;2.63;;;27.30;28.20;;;;;;5051019;28;20284;-56
2021/05/31 10:30:52;;;;;;;5.60;2.53;;;27.40;28.30;;;;;;5051939;28;20101;-56
2021/05/31 10:33:25;;;;;;;8.73;2.67;;;27.40;28.40;;;;;;5016443;28;20033;-53
2021/05/31 10:35:55;;;;;;;5.35;2.80;;;27.40;28.10;;;;;;5032986;28;20127;-54
2021/05/31 10:38:26;;;;;;;6.47;3.22;;;27.50;28.20;;;;;;5049840;28;20033;-51
2021/05/31 10:40:54;;;;;;;18.85;5.82;;;27.30;28.30;;;;;;5032972;28;20090;-51
2021/05/31 10:43:25;;;;;;;7.28;2.70;;;27.20;28.50;;;;;;5049267;28;20033;-55
2021/05/31 10:46:01;;;;;;;7.85;3.17;;;27.10;28.90;;;;;;5031748;28;20555;-56
2021/05/31 10:48:27;;;;;;;18.48;4.30;;;26.60;29.30;;;;;;5032516;28;20053;-50
2021/05/31 10:50:59;;;;;;;5.38;2.97;;;26.50;29.50;;;;;;5032630;28;20083;-54
2021/05/31 10:53:30;;;;;;;5.55;3.50;;;26.50;29.40;;;;;;5050619;28;20060;-52
2021/05/31 10:56:00;;;;;;;13.07;6.10;;;26.70;29.30;;;;;;5031272;28;20037;-49
2021/05/31 10:58:35;;;;;;;10.52;5.00;;;26.80;28.90;;;;;;5031619;28;20025;-53
2021/05/31 11:01:08;;;;;;;5.85;2.95;;;26.30;29.30;;;;;;5048414;28;20017;-47
2021/05/31 11:03:48;;;;;;;;;;;26.10;29.30;;;;;;5031336;28;20147;-52
2021/05/31 11:06:26;;;;;;;13.77;3.95;;;26.00;29.60;;;;;;5029966;28;19905;-52
2021/05/31 11:08:55;;;;;;;5.68;2.92;;;26.00;29.80;;;;;;5049462;28;20021;-53
2021/05/31 11:11:28;;;;;;;12.95;6.85;;;25.90;29.70;;;;;;5031391;28;20033;-56
2021/05/31 11:13:54;;;;;;;13.38;3.92;;;25.80;29.90;;;;;;5050213;28;20044;-52
2021/05/31 11:16:21;;;;;;;9.50;3.33;;;25.80;29.90;;;;;;5048050;28;20315;-52
2021/05/31 11:18:48;;;;;;;11.07;3.97;;;25.90;29.90;;;;;;5032192;28;20033;-56
2021/05/31 11:21:30;;;;;;;6.45;2.88;;;26.00;29.90;;;;;;5049708;28;20033;-51
2021/05/31 11:24:07;;;;;;;16.90;3.35;;;25.80;29.80;;;;;;5050892;28;20033;-49
2021/05/31 11:26:38;;;;;;;4.55;2.00;;;25.90;29.50;;;;;;5050288;28;20021;-55
2021/05/31 11:29:06;;;;;;;15.65;3.78;;;26.00;28.90;;;;;;5032040;28;20056;-53
2021/05/31 11:31:33;;;;;;;17.75;4.32;;;26.10;29.10;;;;;;5050400;28;20340;-53
2021/05/31 11:34:01;;;;;;;24.02;12.27;;;26.20;29.20;;;;;;5015583;28;20033;-52
2021/05/31 11:36:38;;;;;;;19.83;5.82;;;26.00;29.10;;;;;;5032398;28;20057;-56
2021/05/31 11:39:13;;;;;;;9.30;3.97;;;25.80;29.30;;;;;;5031917;28;20120;-54
2021/05/31 11:41:43;;;;;;;17.70;5.70;;;25.10;30.00;;;;;;5033169;28;20021;-56
2021/05/31 11:44:12;;;;;;;13.85;6.10;;;24.50;32.30;;;;;;5050514;28;20380;-52
2021/05/31 11:46:48;;;;;;;12.93;3.67;;;24.30;33.10;;;;;;5050608;28;20069;-48
2021/05/31 11:49:14;;;;;;;16.70;10.40;;;23.90;35.10;;;;;;5050591;28;20040;-54
2021/05/31 11:51:40;;;;;;;19.85;11.25;;;23.50;35.20;;;;;;5050964;28;20074;-54
2021/05/31 11:54:06;;;;;;;12.02;5.00;;;23.50;35.50;;;;;;5050418;28;20503;-51
2021/05/31 11:56:36;;;;;;;13.60;4.72;;;23.00;36.20;;;;;;5033291;28;20028;-55
2021/05/31 11:59:02;;;;;;;10.52;4.45;;;23.20;36.70;;;;;;5050314;28;20064;-52
2021/05/31 12:01:29;;;;;;;16.75;4.40;;;23.50;35.90;;;;;;5050831;28;20025;-50
2021/05/31 12:03:56;;;;;;;22.50;4.80;;;23.90;35.10;;;;;;5032756;28;20060;-55
2021/05/31 12:06:22;;;;;;;15.60;4.40;;;24.20;34.00;;;;;;5050502;28;20082;-52
2021/05/31 12:08:52;;;;;;;33.97;4.70;;;24.50;33.40;;;;;;5050498;28;20472;-54
2021/05/31 12:11:24;;;;;;;10.73;2.97;;;24.80;33.00;;;;;;5031909;28;20045;-52
2021/05/31 12:14:00;;;;;;;6.32;2.67;;;24.90;32.40;;;;;;5029222;28;20049;-50
2021/05/31 12:16:26;;;;;;;12.18;3.65;;;25.00;32.50;;;;;;5031375;28;20029;-50
2021/05/31 12:18:52;;;;;;;10.88;3.38;;;25.10;32.50;;;;;;5030742;28;20030;-52
2021/05/31 12:21:18;;;;;;;30.38;4.03;;;25.40;32.10;;;;;;5033521;28;20049;-51
2021/05/31 12:23:53;;;;;;;21.70;4.20;;;25.70;31.60;;;;;;5034894;28;20040;-55
2021/05/31 12:26:23;;;;;;;13.77;3.63;;;25.80;31.20;;;;;;5033942;28;20030;-54
2021/05/31 12:28:52;;;;;;;11.18;4.05;;;25.90;31.00;;;;;;5034285;28;20428;-54
2021/05/31 12:31:18;;;;;;;27.02;4.47;;;25.90;30.70;;;;;;5033549;28;20025;-55
2021/05/31 12:33:44;;;;;;;18.20;4.32;;;26.10;30.70;;;;;;5033761;28;20070;-49
2021/05/31 12:36:10;;;;;;;5.25;2.97;;;26.30;30.50;;;;;;5032204;28;20112;-56
2021/05/31 12:38:39;;;;;;;9.88;3.30;;;26.40;29.80;;;;;;5033614;28;20075;-55
2021/05/31 12:41:06;;;;;;;6.05;3.13;;;26.40;30.20;;;;;;5033398;28;20037;-53
2021/05/31 12:43:35;;;;;;;4.95;3.03;;;26.30;29.80;;;;;;5033617;28;20400;-54
2021/05/31 12:46:03;;;;;;;111.25;9.30;;;26.20;29.90;;;;;;5032349;28;20071;-52
2021/05/31 12:48:28;;;;;;;65.32;8.18;;;26.30;29.60;;;;;;5033649;28;20032;-53
2021/05/31 12:50:57;;;;;;;84.03;11.43;;;26.30;29.20;;;;;;5032124;28;20388;-55
2021/05/31 12:53:27;;;;;;;11.48;3.08;;;26.40;29.40;;;;;;5033563;28;20447;-54
2021/05/31 12:56:00;;;;;;;174.45;13.85;;;26.30;29.20;;;;;;5033154;28;20087;-50
2021/05/31 12:58:26;;;;;;;275.15;20.67;;;26.20;29.00;;;;;;5032385;28;20017;-50
2021/05/31 13:00:53;;;;;;;175.15;20.92;;;26.30;29.30;;;;;;5033041;28;20095;-51
2021/05/31 13:03:20;;;;;;;159.30;14.85;;;26.20;29.30;;;;;;5030555;28;20080;-51
2021/05/31 13:05:51;;;;;;;158.70;14.43;;;26.20;30.00;;;;;;5031288;28;20029;-53